createdAt,value
2023-03-16T00:01:12.390Z,86.59
2023-03-16T00:03:41.272Z,86.38
2023-03-16T00:06:10.366Z,86.17
2023-03-16T00:08:43.804Z,86.61
2023-03-16T00:11:13.050Z,86.79
2023-03-16T00:13:43.490Z,86.53
2023-03-16T00:16:17.606Z,86.20
2023-03-16T00:18:46.624Z,86.34
2023-03-16T00:21:16.283Z,85.98
2023-03-16T00:23:45.068Z,85.82
2023-03-16T00:26:14.220Z,86.17
2023-03-16T00:28:43.500Z,86.00
2023-03-16T00:31:15.480Z,85.92
2023-03-16T00:33:43.990Z,85.98
2023-03-16T00:36:13.325Z,86.09
2023-03-16T00:38:46.478Z,85.95
2023-03-16T00:41:16.682Z,85.76
2023-03-16T00:43:49.598Z,85.75
2023-03-16T00:46:18.897Z,85.95
2023-03-16T00:48:48.558Z,86.03
2023-03-16T00:51:19.669Z,86.12
2023-03-16T00:53:51.757Z,85.65
2023-03-16T00:56:20.502Z,85.61
2023-03-16T00:58:49.719Z,85.63
2023-03-16T01:01:20.335Z,85.13
2023-03-16T01:03:49.984Z,85.51
2023-03-16T01:06:21.424Z,85.65
2023-03-16T01:08:49.963Z,85.64
2023-03-16T01:11:21.180Z,85.13
2023-03-16T01:13:54.943Z,85.10
2023-03-16T01:16:26.663Z,85.35
2023-03-16T01:18:56.104Z,85.12
2023-03-16T01:21:24.897Z,85.66
2023-03-16T01:23:54.639Z,85.16
2023-03-16T01:26:25.997Z,84.70
2023-03-16T01:28:55.760Z,84.89
2023-03-16T01:31:27.585Z,85.24
2023-03-16T01:33:56.636Z,84.41
2023-03-16T01:36:28.557Z,84.04
2023-03-16T01:39:07.498Z,84.12
2023-03-16T01:41:40.417Z,84.35
2023-03-16T01:44:19.197Z,84.04
2023-03-16T01:46:48.388Z,83.97
2023-03-16T01:49:29.584Z,83.70
2023-03-16T01:52:07.827Z,84.26
2023-03-16T01:54:43.266Z,84.30
2023-03-16T01:57:23.641Z,84.16
2023-03-16T02:00:19.760Z,84.32
2023-03-16T02:03:20.840Z,84.49
2023-03-16T02:06:03.895Z,84.05
2023-03-16T02:08:35.975Z,84.24
2023-03-16T02:11:06.465Z,83.68
2023-03-16T02:13:44.269Z,83.79
2023-03-16T02:16:20.053Z,83.55
2023-03-16T02:18:52.499Z,83.41
2023-03-16T02:21:26.279Z,83.80
2023-03-16T02:23:55.756Z,83.83
2023-03-16T02:26:48.806Z,83.29
2023-03-16T02:30:03.459Z,83.53
2023-03-16T02:32:41.874Z,83.32
2023-03-16T02:35:11.623Z,83.29
2023-03-16T02:37:42.598Z,83.38
2023-03-16T02:40:18.114Z,83.20
2023-03-16T02:43:15.697Z,82.97
2023-03-16T02:45:58.356Z,82.44
2023-03-16T02:48:39.023Z,82.82
2023-03-16T02:51:08.217Z,82.78
2023-03-16T02:53:37.022Z,83.33
2023-03-16T02:56:06.247Z,82.85
2023-03-16T02:58:37.436Z,82.62
2023-03-16T03:01:12.217Z,83.09
2023-03-16T03:03:41.135Z,83.16
2023-03-16T03:06:09.895Z,83.19
2023-03-16T03:08:39.356Z,82.61
2023-03-16T03:11:08.116Z,82.69
2023-03-16T03:13:40.018Z,82.45
2023-03-16T03:16:15.383Z,82.31
2023-03-16T03:18:44.459Z,82.52
2023-03-16T03:21:16.305Z,82.29
2023-03-16T03:23:47.362Z,81.66
2023-03-16T03:26:16.535Z,81.98
2023-03-16T03:28:47.001Z,81.74
2023-03-16T03:31:18.339Z,81.92
2023-03-16T03:33:47.416Z,81.66
2023-03-16T03:36:16.399Z,81.32
2023-03-16T03:38:46.537Z,81.43
2023-03-16T03:41:15.893Z,81.19
2023-03-16T03:43:46.169Z,81.24
2023-03-16T03:46:18.443Z,81.44
2023-03-16T03:48:47.421Z,80.97
2023-03-16T03:51:16.479Z,80.79
2023-03-16T03:53:58.237Z,80.61
2023-03-16T03:56:45.520Z,80.75
2023-03-16T03:59:17.545Z,80.25
2023-03-16T04:02:07.681Z,80.09
2023-03-16T04:04:45.544Z,80.08
2023-03-16T04:07:15.727Z,79.87
2023-03-16T04:09:46.040Z,79.87
2023-03-16T04:12:27.244Z,79.43
2023-03-16T04:14:56.204Z,79.40
2023-03-16T04:17:26.637Z,79.67
2023-03-16T04:19:59.087Z,78.90
2023-03-16T04:22:27.705Z,78.74
2023-03-16T04:24:57.222Z,78.56
2023-03-16T04:27:28.461Z,78.59
2023-03-16T04:30:00.381Z,78.08
2023-03-16T04:32:30.090Z,78.21
2023-03-16T04:34:59.353Z,77.94
2023-03-16T04:37:40.109Z,77.95
2023-03-16T04:40:20.189Z,77.21
2023-03-16T04:42:55.222Z,77.09
2023-03-16T04:45:25.206Z,76.85
2023-03-16T04:47:57.245Z,76.57
2023-03-16T04:50:26.458Z,76.24
2023-03-16T04:52:56.427Z,76.29
2023-03-16T04:55:26.183Z,75.79
2023-03-16T04:57:55.321Z,76.05
2023-03-16T05:00:24.869Z,75.46
2023-03-16T05:03:11.440Z,75.26
2023-03-16T05:05:41.200Z,75.61
2023-03-16T05:08:11.572Z,75.19
2023-03-16T05:10:43.423Z,75.56
2023-03-16T05:13:12.545Z,75.13
2023-03-16T05:15:41.297Z,74.83
2023-03-16T05:18:24.162Z,74.83
2023-03-16T05:20:55.207Z,74.85
2023-03-16T05:23:25.601Z,74.63
2023-03-16T05:26:03.481Z,75.01
2023-03-16T05:28:35.004Z,74.44
2023-03-16T05:31:07.666Z,73.89
2023-03-16T05:33:41.113Z,73.56
2023-03-16T05:36:13.960Z,74.14
2023-03-16T05:38:48.407Z,73.97
2023-03-16T05:41:43.506Z,73.71
2023-03-16T05:44:24.244Z,73.31
2023-03-16T05:47:03.640Z,72.73
2023-03-16T05:49:34.575Z,73.37
2023-03-16T05:52:07.145Z,72.82
2023-03-16T05:54:37.165Z,73.07
2023-03-16T05:57:07.825Z,72.83
2023-03-16T05:59:37.862Z,73.00
2023-03-16T06:02:07.027Z,72.82
2023-03-16T06:04:38.207Z,72.15
2023-03-16T06:07:07.265Z,72.20
2023-03-16T06:09:36.644Z,72.77
2023-03-16T06:12:11.844Z,72.55
2023-03-16T06:14:41.889Z,71.37
2023-03-16T06:17:11.561Z,71.27
2023-03-16T06:19:42.430Z,70.59
2023-03-16T06:22:11.734Z,70.52
2023-03-16T06:24:41.126Z,69.85
2023-03-16T06:27:10.005Z,70.09
2023-03-16T06:29:52.247Z,70.28
2023-03-16T06:32:24.150Z,69.65
2023-03-16T06:34:53.318Z,69.82
2023-03-16T06:37:22.526Z,69.39
2023-03-16T06:39:51.389Z,69.23
2023-03-16T06:42:20.272Z,69.45
2023-03-16T06:44:49.280Z,69.49
2023-03-16T06:47:18.490Z,69.89
2023-03-16T06:49:47.867Z,69.31
2023-03-16T06:52:21.766Z,69.24
2023-03-16T06:54:51.707Z,69.25
2023-03-16T06:57:22.095Z,69.57
2023-03-16T06:59:51.829Z,69.53
2023-03-16T07:02:20.829Z,69.72
2023-03-16T07:04:49.896Z,68.59
2023-03-16T07:07:19.985Z,68.75
2023-03-16T07:09:48.853Z,69.02
2023-03-16T07:12:17.625Z,68.40
2023-03-16T07:14:49.731Z,68.54
2023-03-16T07:17:22.885Z,68.20
2023-03-16T07:19:52.085Z,67.80
2023-03-16T07:22:20.983Z,67.20
2023-03-16T07:24:56.745Z,67.12
2023-03-16T07:27:26.902Z,65.84
2023-03-16T07:29:55.844Z,66.60
2023-03-16T07:32:24.809Z,66.57
2023-03-16T07:34:58.149Z,65.97
2023-03-16T07:37:31.967Z,66.31
2023-03-16T07:40:02.656Z,66.12
2023-03-16T07:42:31.454Z,66.48
2023-03-16T07:45:18.586Z,66.32
2023-03-16T07:47:48.327Z,66.86
2023-03-16T07:50:37.269Z,66.49
2023-03-16T07:53:06.175Z,65.84
2023-03-16T07:55:39.850Z,66.96
2023-03-16T07:58:11.379Z,66.40
2023-03-16T08:00:43.364Z,66.71
2023-03-16T08:03:12.543Z,66.23
2023-03-16T08:05:41.546Z,66.41
2023-03-16T08:08:19.502Z,65.67
2023-03-16T08:10:55.011Z,65.57
2023-03-16T08:13:31.028Z,66.45
2023-03-16T08:16:02.739Z,65.62
2023-03-16T08:18:37.680Z,65.42
2023-03-16T08:21:07.563Z,64.63
2023-03-16T08:23:36.865Z,65.72
2023-03-16T08:26:09.730Z,65.20
2023-03-16T08:28:39.910Z,64.98
2023-03-16T08:31:13.030Z,64.66
2023-03-16T08:33:48.560Z,64.47
2023-03-16T08:36:22.968Z,64.23
2023-03-16T08:39:06.589Z,64.26
2023-03-16T08:41:46.684Z,64.17
2023-03-16T08:44:26.769Z,64.00
2023-03-16T08:46:56.118Z,64.10
2023-03-16T08:49:25.810Z,64.48
2023-03-16T08:52:03.048Z,65.08
2023-03-16T08:54:33.071Z,65.08
2023-03-16T08:57:02.139Z,65.61
2023-03-16T08:59:34.024Z,65.14
2023-03-16T09:02:05.130Z,65.08
2023-03-16T09:04:34.071Z,65.04
2023-03-16T09:07:09.345Z,65.55
2023-03-16T09:09:39.023Z,65.97
2023-03-16T09:12:09.488Z,66.11
2023-03-16T09:14:39.314Z,65.75
2023-03-16T09:17:08.662Z,65.86
2023-03-16T09:19:56.274Z,66.36
2023-03-16T09:22:26.594Z,66.13
2023-03-16T09:24:55.490Z,66.34
2023-03-16T09:27:24.579Z,67.23
2023-03-16T09:29:56.637Z,66.94
2023-03-16T09:32:25.581Z,67.90
2023-03-16T09:34:55.205Z,67.55
2023-03-16T09:37:24.282Z,67.62
2023-03-16T09:39:57.933Z,67.74
2023-03-16T09:42:38.866Z,67.72
2023-03-16T09:45:16.079Z,67.49
2023-03-16T09:47:49.245Z,66.98
2023-03-16T09:50:30.279Z,67.28
2023-03-16T09:53:32.238Z,66.66
2023-03-16T09:56:16.960Z,67.29
2023-03-16T09:58:46.536Z,67.50
2023-03-16T10:01:45.534Z,67.46
2023-03-16T10:04:43.794Z,67.74
2023-03-16T10:07:53.013Z,66.95
2023-03-16T10:10:39.150Z,67.34
2023-03-16T10:13:24.698Z,66.98
2023-03-16T10:15:57.434Z,67.12
2023-03-16T10:18:33.291Z,67.42
2023-03-16T10:21:03.644Z,67.27
2023-03-16T10:23:36.114Z,67.89
2023-03-16T10:26:15.433Z,67.96
2023-03-16T10:28:46.342Z,67.91
2023-03-16T10:31:17.728Z,67.98
2023-03-16T10:33:47.090Z,68.05
2023-03-16T10:36:26.822Z,68.46
2023-03-16T10:39:00.491Z,68.35
2023-03-16T10:41:34.696Z,68.45
2023-03-16T10:44:27.656Z,68.66
2023-03-16T10:47:08.932Z,68.59
2023-03-16T10:49:42.819Z,68.48
2023-03-16T10:52:27.002Z,68.85
2023-03-16T10:55:02.053Z,69.32
2023-03-16T10:57:34.735Z,69.33
2023-03-16T11:00:13.807Z,69.42
2023-03-16T11:02:43.125Z,69.63
2023-03-16T11:05:31.898Z,69.53
2023-03-16T11:08:14.497Z,69.33
2023-03-16T11:10:56.340Z,69.21
2023-03-16T11:13:38.360Z,69.27
2023-03-16T11:16:46.139Z,69.18
2023-03-16T11:19:58.481Z,68.92
2023-03-16T11:22:28.461Z,69.92
2023-03-16T11:24:57.017Z,69.47
2023-03-16T11:28:07.346Z,70.85
2023-03-16T11:31:04.742Z,70.51
2023-03-16T11:33:35.718Z,70.48
2023-03-16T11:36:28.404Z,70.35
2023-03-16T11:39:41.299Z,70.00
2023-03-16T11:42:16.518Z,70.59
2023-03-16T11:45:02.224Z,70.56
2023-03-16T11:47:37.427Z,70.63
2023-03-16T11:50:20.764Z,71.39
2023-03-16T11:53:01.484Z,71.37
2023-03-16T11:55:37.850Z,70.78
2023-03-16T11:58:58.836Z,71.35
2023-03-16T12:01:58.149Z,71.83
2023-03-16T12:04:47.357Z,72.04
2023-03-16T12:07:26.915Z,72.22
2023-03-16T12:10:24.818Z,71.88
2023-03-16T12:13:11.892Z,71.82
2023-03-16T12:15:48.941Z,72.52
2023-03-16T12:18:40.174Z,72.27
2023-03-16T12:21:19.412Z,72.77
2023-03-16T12:23:56.095Z,72.39
2023-03-16T12:26:30.880Z,72.49
2023-03-16T12:29:01.323Z,72.60
2023-03-16T12:32:15.989Z,73.21
2023-03-16T12:35:08.621Z,72.66
2023-03-16T12:37:46.316Z,72.52
2023-03-16T12:40:45.365Z,73.12
2023-03-16T12:43:40.112Z,73.24
2023-03-16T12:46:15.230Z,73.12
2023-03-16T12:48:51.297Z,73.70
2023-03-16T12:51:20.042Z,73.21
2023-03-16T12:53:52.472Z,73.58
2023-03-16T12:56:30.919Z,73.36
2023-03-16T12:59:06.924Z,72.92
2023-03-16T13:01:43.314Z,73.83
2023-03-16T13:04:24.292Z,73.96
2023-03-16T13:07:19.935Z,73.67
2023-03-16T13:09:52.915Z,74.16
2023-03-16T13:12:33.343Z,73.59
2023-03-16T13:15:02.860Z,74.14
2023-03-16T13:17:33.949Z,74.04
2023-03-16T13:20:08.944Z,74.21
2023-03-16T13:22:48.559Z,74.12
2023-03-16T13:25:23.647Z,74.51
2023-03-16T13:27:56.816Z,74.34
2023-03-16T13:30:47.922Z,74.65
2023-03-16T13:33:29.563Z,74.42
2023-03-16T13:36:00.838Z,74.28
2023-03-16T13:38:30.282Z,74.60
2023-03-16T13:41:04.710Z,74.41
2023-03-16T13:43:36.542Z,74.18
2023-03-16T13:46:19.599Z,74.29
2023-03-16T13:48:49.789Z,74.12
2023-03-16T13:51:21.805Z,74.88
2023-03-16T13:53:51.914Z,74.43
2023-03-16T13:56:27.700Z,74.59
2023-03-16T13:58:59.484Z,74.95
2023-03-16T14:01:32.951Z,75.02
2023-03-16T14:04:09.401Z,74.91
2023-03-16T14:06:39.361Z,74.61
2023-03-16T14:09:18.682Z,74.83
2023-03-16T14:11:49.403Z,74.77
2023-03-16T14:14:26.941Z,74.65
2023-03-16T14:17:03.695Z,74.42
2023-03-16T14:19:43.037Z,74.59
2023-03-16T14:22:19.010Z,74.59
2023-03-16T14:24:55.532Z,74.99
2023-03-16T14:27:44.996Z,75.34
2023-03-16T14:30:26.846Z,75.16
2023-03-16T14:33:03.068Z,75.47
2023-03-16T14:35:43.550Z,75.25
2023-03-16T14:38:36.898Z,74.84
2023-03-16T14:41:10.403Z,75.36
2023-03-16T14:43:48.459Z,75.04
2023-03-16T14:46:28.620Z,75.40
2023-03-16T14:49:17.776Z,75.30
2023-03-16T14:51:49.396Z,75.06
2023-03-16T14:54:22.568Z,75.42
2023-03-16T14:56:54.230Z,75.79
2023-03-16T14:59:23.196Z,75.43
2023-03-16T15:01:55.428Z,75.75
2023-03-16T15:04:36.190Z,75.70
2023-03-16T15:07:35.316Z,75.87
2023-03-16T15:10:11.355Z,76.15
2023-03-16T15:12:41.720Z,76.00
2023-03-16T15:15:19.713Z,76.04
2023-03-16T15:17:51.203Z,76.36
2023-03-16T15:20:26.234Z,75.94
2023-03-16T15:22:55.233Z,76.09
2023-03-16T15:25:42.652Z,75.86
2023-03-16T15:28:19.472Z,76.20
2023-03-16T15:31:04.768Z,75.96
2023-03-16T15:33:35.490Z,75.54
2023-03-16T15:36:15.496Z,75.91
2023-03-16T15:38:49.590Z,75.75
2023-03-16T15:41:22.050Z,76.27
2023-03-16T15:43:53.170Z,76.24
2023-03-16T15:46:25.152Z,76.26
2023-03-16T15:48:54.459Z,76.16
2023-03-16T15:51:31.027Z,76.46
2023-03-16T15:54:06.061Z,76.47
2023-03-16T15:56:50.971Z,76.42
2023-03-16T15:59:22.860Z,76.25
2023-03-16T16:01:53.165Z,76.37
2023-03-16T16:04:25.822Z,76.60
2023-03-16T16:06:56.032Z,76.40
2023-03-16T16:09:26.269Z,75.98
2023-03-16T16:11:54.956Z,76.27
2023-03-16T16:14:27.349Z,76.57
2023-03-16T16:16:56.373Z,76.21
2023-03-16T16:19:29.198Z,76.28
2023-03-16T16:21:57.912Z,76.29
2023-03-16T16:24:27.212Z,76.40
2023-03-16T16:26:56.284Z,76.27
2023-03-16T16:29:30.704Z,76.52
2023-03-16T16:31:59.991Z,76.05
2023-03-16T16:34:29.325Z,75.85
2023-03-16T16:36:58.858Z,76.57
2023-03-16T16:39:28.072Z,76.26
2023-03-16T16:41:57.500Z,76.68
2023-03-16T16:44:34.426Z,76.57
2023-03-16T16:47:04.713Z,76.79
2023-03-16T16:49:35.489Z,76.73
2023-03-16T16:52:04.787Z,76.91
2023-03-16T16:54:33.610Z,76.73
2023-03-16T16:57:09.410Z,76.77
2023-03-16T16:59:39.048Z,77.13
2023-03-16T17:02:30.502Z,76.77
2023-03-16T17:04:59.365Z,76.88
2023-03-16T17:07:28.613Z,77.07
2023-03-16T17:09:57.244Z,77.07
2023-03-16T17:12:26.546Z,77.03
2023-03-16T17:14:58.007Z,77.30
2023-03-16T17:17:29.898Z,77.14
2023-03-16T17:19:59.084Z,77.01
2023-03-16T17:22:29.146Z,76.95
2023-03-16T17:24:59.282Z,77.80
2023-03-16T17:27:32.923Z,77.19
2023-03-16T17:30:02.623Z,77.00
2023-03-16T17:32:31.718Z,77.74
2023-03-16T17:35:00.594Z,77.18
2023-03-16T17:37:29.493Z,77.84
2023-03-16T17:39:58.696Z,77.69
2023-03-16T17:42:27.812Z,77.31
2023-03-16T17:44:57.235Z,77.62
2023-03-16T17:47:28.374Z,77.67
2023-03-16T17:49:57.744Z,77.67
2023-03-16T17:52:30.360Z,77.68
2023-03-16T17:54:59.520Z,77.40
2023-03-16T17:57:32.719Z,77.33
2023-03-16T18:00:03.302Z,77.75
2023-03-16T18:02:55.917Z,77.41
2023-03-16T18:05:31.066Z,77.67
2023-03-16T18:08:07.896Z,77.15
2023-03-16T18:10:38.438Z,77.88
2023-03-16T18:13:15.137Z,77.38
2023-03-16T18:15:45.967Z,77.49
2023-03-16T18:18:21.306Z,77.44
2023-03-16T18:20:51.602Z,77.80
2023-03-16T18:23:23.264Z,77.61
2023-03-16T18:25:55.639Z,77.59
2023-03-16T18:28:24.411Z,77.91
2023-03-16T18:30:54.385Z,78.04
2023-03-16T18:33:35.285Z,77.99
2023-03-16T18:36:14.046Z,77.77
2023-03-16T18:38:46.414Z,77.62
2023-03-16T18:41:26.215Z,77.51
2023-03-16T18:43:59.279Z,77.00
2023-03-16T18:46:32.560Z,77.72
2023-03-16T18:49:05.719Z,77.66
2023-03-16T18:51:34.514Z,77.41
2023-03-16T18:54:03.357Z,77.77
2023-03-16T18:56:32.493Z,77.60
2023-03-16T18:59:01.254Z,77.80
2023-03-16T19:01:32.505Z,77.70
2023-03-16T19:04:03.035Z,77.58
2023-03-16T19:06:36.088Z,77.94
2023-03-16T19:09:14.126Z,78.20
2023-03-16T19:11:44.988Z,78.11
2023-03-16T19:14:19.599Z,78.67
2023-03-16T19:16:48.301Z,78.08
2023-03-16T19:19:17.707Z,78.16
2023-03-16T19:21:46.589Z,77.59
2023-03-16T19:24:49.866Z,78.09
2023-03-16T19:27:24.866Z,77.75
2023-03-16T19:29:55.785Z,77.53
2023-03-16T19:32:24.741Z,77.63
2023-03-16T19:34:53.873Z,77.58
2023-03-16T19:37:24.624Z,77.62
2023-03-16T19:39:53.572Z,77.57
2023-03-16T19:42:29.217Z,78.02
2023-03-16T19:44:58.074Z,77.87
2023-03-16T19:47:32.872Z,78.15
2023-03-16T19:50:02.614Z,78.62
2023-03-16T19:52:33.351Z,78.96
2023-03-16T19:55:05.031Z,78.52
2023-03-16T19:57:34.650Z,78.91
2023-03-16T20:00:04.452Z,78.81
2023-03-16T20:02:37.852Z,79.74
2023-03-16T20:05:07.653Z,79.53
2023-03-16T20:07:38.875Z,78.86
2023-03-16T20:10:08.525Z,78.57
2023-03-16T20:12:39.456Z,79.00
2023-03-16T20:15:15.494Z,79.12
2023-03-16T20:17:45.129Z,80.12
2023-03-16T20:20:35.056Z,79.79
2023-03-16T20:23:04.095Z,80.49
2023-03-16T20:25:35.471Z,79.74
2023-03-16T20:28:04.649Z,81.06
2023-03-16T20:30:36.530Z,81.33
2023-03-16T20:33:05.681Z,80.57
2023-03-16T20:35:35.006Z,81.26
2023-03-16T20:38:03.668Z,81.60
2023-03-16T20:40:32.588Z,80.96
2023-03-16T20:43:01.768Z,81.88
2023-03-16T20:45:31.176Z,81.99
2023-03-16T20:47:59.988Z,81.98
2023-03-16T20:50:31.290Z,82.25
2023-03-16T20:53:00.045Z,82.15
2023-03-16T20:55:29.811Z,82.22
2023-03-16T20:57:59.268Z,82.10
2023-03-16T21:00:36.015Z,82.41
2023-03-16T21:03:19.769Z,82.10
2023-03-16T21:05:49.320Z,82.36
2023-03-16T21:08:18.868Z,82.56
2023-03-16T21:10:50.167Z,82.65
2023-03-16T21:13:34.535Z,82.74
2023-03-16T21:16:05.121Z,83.10
2023-03-16T21:18:33.858Z,83.09
2023-03-16T21:21:03.809Z,82.56
2023-03-16T21:23:32.593Z,82.75
2023-03-16T21:26:04.387Z,83.02
2023-03-16T21:28:35.334Z,83.52
2023-03-16T21:31:06.172Z,82.72
2023-03-16T21:33:39.940Z,83.29
2023-03-16T21:36:15.965Z,83.18
2023-03-16T21:38:45.748Z,83.09
2023-03-16T21:41:15.571Z,83.43
2023-03-16T21:43:45.636Z,83.32
2023-03-16T21:46:17.178Z,83.09
2023-03-16T21:48:50.250Z,83.17
2023-03-16T21:51:30.993Z,83.66
2023-03-16T21:53:59.930Z,83.46
2023-03-16T21:56:29.647Z,82.78
2023-03-16T21:58:58.511Z,83.23
2023-03-16T22:01:32.933Z,83.82
2023-03-16T22:04:09.510Z,83.78
2023-03-16T22:06:38.985Z,83.44
2023-03-16T22:09:08.210Z,83.37
2023-03-16T22:11:36.972Z,83.29
2023-03-16T22:14:05.825Z,83.50
2023-03-16T22:16:37.244Z,83.35
2023-03-16T22:19:07.171Z,82.77
2023-03-16T22:21:41.514Z,83.15
2023-03-16T22:24:29.077Z,82.47
2023-03-16T22:26:58.844Z,82.95
2023-03-16T22:29:34.163Z,82.58
2023-03-16T22:32:08.153Z,82.60
2023-03-16T22:34:56.668Z,82.78
2023-03-16T22:37:27.972Z,82.18
2023-03-16T22:39:59.287Z,82.33
2023-03-16T22:42:39.174Z,81.48
2023-03-16T22:45:22.230Z,81.28
2023-03-16T22:47:51.098Z,81.73
2023-03-16T22:50:22.688Z,81.86
2023-03-16T22:52:56.689Z,81.41
2023-03-16T22:55:33.495Z,81.72
2023-03-16T22:58:35.969Z,81.78
2023-03-16T23:01:28.862Z,81.99
2023-03-16T23:03:57.630Z,81.64
2023-03-16T23:06:30.870Z,82.04
2023-03-16T23:09:00.012Z,81.13
2023-03-16T23:11:37.306Z,81.46
2023-03-16T23:14:15.717Z,81.53
2023-03-16T23:16:45.601Z,81.26
2023-03-16T23:19:32.657Z,81.66
2023-03-16T23:22:04.152Z,81.81
2023-03-16T23:24:34.516Z,81.64
2023-03-16T23:27:15.558Z,81.88
2023-03-16T23:29:44.863Z,81.85
2023-03-16T23:32:14.114Z,81.71
2023-03-16T23:34:42.860Z,80.43
2023-03-16T23:37:12.111Z,80.81
2023-03-16T23:39:40.812Z,81.28
2023-03-16T23:42:10.074Z,80.95
2023-03-16T23:44:38.815Z,80.49
2023-03-16T23:47:07.879Z,80.03
2023-03-16T23:49:43.372Z,80.03
2023-03-16T23:52:14.192Z,80.56
2023-03-16T23:54:44.111Z,80.34
2023-03-16T23:57:12.940Z,80.87
2023-03-16T23:59:42.020Z,80.25
